Terminal Aerodrome Forecast
Issued by NWS

Home | Current Version | Previous Version | Text Only | Print | Product List | Glossary On
Versions: 1 2 3 4 5 6 7 8 9 10 11 12 13 14 15 16 17 18 19 20 21 22
000
FTUS43 KDTX 111124
TAFYIP
TAF
KYIP 111124Z 1112/1212 17006KT 1 1/2SM -SN OVC015
     FM111400 15009KT 1SM -SN OVC010
     FM111800 16013KT 3/4SM -SN OVC008
     FM112000 16013KT 1/2SM SN OVC005
     FM120200 18008KT 3/4SM -SN OVC005
     FM120500 19010KT 3SM -SN OVC009
     FM120800 22010KT P6SM OVC009=

USA.gov is the U.S. government's official web portal to all federal, state and local government web resources and services.